sensor_id;sensor_type;location;lat;lon;timestamp;pressure;altitude;pressure_sealevel;temperature;humidity
14293;BME280;62290;59.420;17.842;2023-01-24T00:01:28;102909.72;;;25.09;19.55
14293;BME280;62290;59.420;17.842;2023-01-24T00:03:56;102907.69;;;25.13;19.28
14293;BME280;62290;59.420;17.842;2023-01-24T00:06:24;102901.16;;;25.17;19.48
14293;BME280;62290;59.420;17.842;2023-01-24T00:08:52;102913.41;;;25.23;19.44
14293;BME280;62290;59.420;17.842;2023-01-24T00:11:20;102894.34;;;25.26;19.54
14293;BME280;62290;59.420;17.842;2023-01-24T00:13:50;102897.69;;;25.29;19.11
14293;BME280;62290;59.420;17.842;2023-01-24T00:16:20;102896.94;;;25.27;19.21
14293;BME280;62290;59.420;17.842;2023-01-24T00:18:49;102906.00;;;25.26;19.05
14293;BME280;62290;59.420;17.842;2023-01-24T00:21:19;102911.41;;;25.26;18.88
14293;BME280;62290;59.420;17.842;2023-01-24T00:23:49;102905.13;;;25.26;18.99
14293;BME280;62290;59.420;17.842;2023-01-24T00:26:18;102874.72;;;25.08;19.16
14293;BME280;62290;59.420;17.842;2023-01-24T00:28:47;102896.25;;;25.24;19.23
14293;BME280;62290;59.420;17.842;2023-01-24T00:31:17;102889.13;;;25.23;19.10
14293;BME280;62290;59.420;17.842;2023-01-24T00:33:45;102889.00;;;25.24;19.14
14293;BME280;62290;59.420;17.842;2023-01-24T00:36:13;102880.91;;;25.24;19.03
14293;BME280;62290;59.420;17.842;2023-01-24T00:38:42;102873.81;;;25.23;18.68
14293;BME280;62290;59.420;17.842;2023-01-24T00:41:10;102864.94;;;25.21;19.10
14293;BME280;62290;59.420;17.842;2023-01-24T00:43:38;102880.25;;;25.21;18.92
14293;BME280;62290;59.420;17.842;2023-01-24T00:46:07;102881.19;;;25.20;18.68
14293;BME280;62290;59.420;17.842;2023-01-24T00:48:37;102873.97;;;25.20;18.77
14293;BME280;62290;59.420;17.842;2023-01-24T00:51:05;102882.94;;;25.21;18.82
14293;BME280;62290;59.420;17.842;2023-01-24T00:53:33;102896.44;;;25.21;18.39
14293;BME280;62290;59.420;17.842;2023-01-24T00:56:02;102900.97;;;25.20;18.46
14293;BME280;62290;59.420;17.842;2023-01-24T00:58:31;102874.84;;;25.21;18.79
14293;BME280;62290;59.420;17.842;2023-01-24T01:00:59;102876.75;;;25.18;18.69
14293;BME280;62290;59.420;17.842;2023-01-24T01:03:30;102869.47;;;25.21;18.75
14293;BME280;62290;59.420;17.842;2023-01-24T01:06:01;102850.47;;;25.22;18.72
14293;BME280;62290;59.420;17.842;2023-01-24T01:08:30;102828.09;;;25.20;18.69
14293;BME280;62290;59.420;17.842;2023-01-24T01:10:59;102831.69;;;25.21;18.74
14293;BME280;62290;59.420;17.842;2023-01-24T01:13:28;102848.75;;;25.21;18.49
14293;BME280;62290;59.420;17.842;2023-01-24T01:16:01;102855.84;;;25.22;18.71
14293;BME280;62290;59.420;17.842;2023-01-24T01:18:29;102862.31;;;25.20;18.59
14293;BME280;62290;59.420;17.842;2023-01-24T01:20:57;102870.41;;;25.20;18.88
14293;BME280;62290;59.420;17.842;2023-01-24T01:23:27;102851.53;;;25.20;18.71
14293;BME280;62290;59.420;17.842;2023-01-24T01:25:59;102845.16;;;25.21;18.56
14293;BME280;62290;59.420;17.842;2023-01-24T01:28:28;102841.66;;;25.18;18.94
14293;BME280;62290;59.420;17.842;2023-01-24T01:30:56;102831.84;;;25.17;18.69
14293;BME280;62290;59.420;17.842;2023-01-24T01:33:24;102835.31;;;25.20;18.84
14293;BME280;62290;59.420;17.842;2023-01-24T01:35:52;102834.56;;;25.17;18.80
14293;BME280;62290;59.420;17.842;2023-01-24T01:38:20;102801.19;;;25.18;18.99
14293;BME280;62290;59.420;17.842;2023-01-24T01:40:52;102794.09;;;25.17;18.90
14293;BME280;62290;59.420;17.842;2023-01-24T01:43:22;102804.00;;;25.17;18.89
14293;BME280;62290;59.420;17.842;2023-01-24T01:45:53;102801.41;;;25.15;18.74
14293;BME280;62290;59.420;17.842;2023-01-24T01:48:25;102805.06;;;25.14;19.12
14293;BME280;62290;59.420;17.842;2023-01-24T01:51:01;102815.16;;;25.11;18.86
14293;BME280;62290;59.420;17.842;2023-01-24T01:53:34;102831.16;;;25.14;18.84
14293;BME280;62290;59.420;17.842;2023-01-24T01:56:07;102811.41;;;24.99;19.07
14293;BME280;62290;59.420;17.842;2023-01-24T01:58:40;102836.19;;;25.20;19.17
14293;BME280;62290;59.420;17.842;2023-01-24T02:01:08;102815.50;;;25.21;18.84
14293;BME280;62290;59.420;17.842;2023-01-24T02:03:42;102813.38;;;25.26;19.03
14293;BME280;62290;59.420;17.842;2023-01-24T02:06:22;102788.97;;;25.27;18.94
14293;BME280;62290;59.420;17.842;2023-01-24T02:08:54;102802.56;;;25.26;18.72
14293;BME280;62290;59.420;17.842;2023-01-24T02:11:24;102806.81;;;25.30;19.13
14293;BME280;62290;59.420;17.842;2023-01-24T02:14:08;102806.81;;;25.30;18.82
14293;BME280;62290;59.420;17.842;2023-01-24T02:16:54;102813.25;;;25.27;19.09
14293;BME280;62290;59.420;17.842;2023-01-24T02:19:51;102797.81;;;25.29;18.74
14293;BME280;62290;59.420;17.842;2023-01-24T02:22:25;102802.16;;;25.32;19.04
14293;BME280;62290;59.420;17.842;2023-01-24T02:25:01;102802.09;;;25.33;18.71
14293;BME280;62290;59.420;17.842;2023-01-24T02:27:34;102807.38;;;25.35;18.97
14293;BME280;62290;59.420;17.842;2023-01-24T02:30:02;102789.44;;;25.20;18.90
14293;BME280;62290;59.420;17.842;2023-01-24T02:32:31;102795.63;;;25.36;18.97
14293;BME280;62290;59.420;17.842;2023-01-24T02:34:59;102791.97;;;25.37;19.05
14293;BME280;62290;59.420;17.842;2023-01-24T02:37:27;102800.75;;;25.40;18.66
14293;BME280;62290;59.420;17.842;2023-01-24T02:39:58;102804.31;;;25.41;18.60
14293;BME280;62290;59.420;17.842;2023-01-24T02:42:32;102794.56;;;25.38;18.67
14293;BME280;62290;59.420;17.842;2023-01-24T02:45:07;102798.91;;;25.41;18.70
14293;BME280;62290;59.420;17.842;2023-01-24T02:47:40;102797.16;;;25.40;18.98
14293;BME280;62290;59.420;17.842;2023-01-24T02:50:11;102803.53;;;25.39;19.03
14293;BME280;62290;59.420;17.842;2023-01-24T02:52:39;102827.72;;;25.40;18.69
14293;BME280;62290;59.420;17.842;2023-01-24T02:55:25;102819.63;;;25.40;19.19
14293;BME280;62290;59.420;17.842;2023-01-24T02:57:54;102804.31;;;25.41;18.76
14293;BME280;62290;59.420;17.842;2023-01-24T03:00:40;102785.97;;;25.32;18.99
14293;BME280;62290;59.420;17.842;2023-01-24T03:03:14;102793.50;;;25.41;19.21
14293;BME280;62290;59.420;17.842;2023-01-24T03:05:42;102793.50;;;25.41;19.10
14293;BME280;62290;59.420;17.842;2023-01-24T03:08:30;102796.22;;;25.41;19.00
14293;BME280;62290;59.420;17.842;2023-01-24T03:10:59;102776.38;;;25.42;18.84
14293;BME280;62290;59.420;17.842;2023-01-24T03:13:29;102780.88;;;25.41;19.26
14293;BME280;62290;59.420;17.842;2023-01-24T03:16:16;102784.53;;;25.40;19.13
14293;BME280;62290;59.420;17.842;2023-01-24T03:19:03;102781.06;;;25.38;19.05
14293;BME280;62290;59.420;17.842;2023-01-24T03:21:48;102791.00;;;25.38;19.32
14293;BME280;62290;59.420;17.842;2023-01-24T03:24:34;102798.22;;;25.37;18.94
14293;BME280;62290;59.420;17.842;2023-01-24T03:27:20;102799.09;;;25.38;19.30
14293;BME280;62290;59.420;17.842;2023-01-24T03:30:07;102780.19;;;25.38;19.00
14293;BME280;62290;59.420;17.842;2023-01-24T03:32:59;102754.97;;;25.39;19.29
14293;BME280;62290;59.420;17.842;2023-01-24T03:35:48;102727.97;;;25.39;18.91
14293;BME280;62290;59.420;17.842;2023-01-24T03:38:24;102735.88;;;25.42;19.48
14293;BME280;62290;59.420;17.842;2023-01-24T03:41:10;102745.69;;;25.43;19.10
14293;BME280;62290;59.420;17.842;2023-01-24T03:43:40;102741.91;;;25.45;18.85
14293;BME280;62290;59.420;17.842;2023-01-24T03:46:10;102745.53;;;25.46;18.95
14293;BME280;62290;59.420;17.842;2023-01-24T03:48:51;102750.81;;;25.47;19.44
14293;BME280;62290;59.420;17.842;2023-01-24T03:51:26;102752.56;;;25.48;19.42
14293;BME280;62290;59.420;17.842;2023-01-24T03:54:12;102742.53;;;25.50;18.96
14293;BME280;62290;59.420;17.842;2023-01-24T03:57:12;102746.22;;;25.49;18.99
14293;BME280;62290;59.420;17.842;2023-01-24T03:59:40;102754.19;;;25.51;19.07
14293;BME280;62290;59.420;17.842;2023-01-24T04:02:08;102748.78;;;25.51;19.08
14293;BME280;62290;59.420;17.842;2023-01-24T04:04:40;102746.88;;;25.53;18.97
14293;BME280;62290;59.420;17.842;2023-01-24T04:07:26;102763.94;;;25.53;19.50
14293;BME280;62290;59.420;17.842;2023-01-24T04:09:58;102767.50;;;25.54;18.99
14293;BME280;62290;59.420;17.842;2023-01-24T04:12:29;102783.72;;;25.54;19.38
14293;BME280;62290;59.420;17.842;2023-01-24T04:14:58;102765.75;;;25.53;19.49
14293;BME280;62290;59.420;17.842;2023-01-24T04:17:27;102772.03;;;25.53;19.05
14293;BME280;62290;59.420;17.842;2023-01-24T04:19:57;102787.28;;;25.54;19.55
14293;BME280;62290;59.420;17.842;2023-01-24T04:22:26;102774.84;;;25.52;19.19
14293;BME280;62290;59.420;17.842;2023-01-24T04:24:56;102782.06;;;25.51;19.37
14293;BME280;62290;59.420;17.842;2023-01-24T04:27:29;102768.47;;;25.53;19.56
14293;BME280;62290;59.420;17.842;2023-01-24T04:30:05;102780.25;;;25.52;19.57
14293;BME280;62290;59.420;17.842;2023-01-24T04:32:36;102779.25;;;25.53;19.50
14293;BME280;62290;59.420;17.842;2023-01-24T04:35:17;102783.81;;;25.52;19.65
14293;BME280;62290;59.420;17.842;2023-01-24T04:37:52;102777.63;;;25.50;19.46
14293;BME280;62290;59.420;17.842;2023-01-24T04:40:40;102767.69;;;25.51;19.68
14293;BME280;62290;59.420;17.842;2023-01-24T04:43:09;102768.56;;;25.51;19.23
14293;BME280;62290;59.420;17.842;2023-01-24T04:45:38;102767.69;;;25.51;19.52
14293;BME280;62290;59.420;17.842;2023-01-24T04:48:09;102751.50;;;25.51;19.71
14293;BME280;62290;59.420;17.842;2023-01-24T04:50:38;102754.19;;;25.51;19.65
14293;BME280;62290;59.420;17.842;2023-01-24T04:53:06;102750.63;;;25.50;19.71
14293;BME280;62290;59.420;17.842;2023-01-24T04:55:34;102762.28;;;25.51;19.52
14293;BME280;62290;59.420;17.842;2023-01-24T04:58:02;102754.13;;;25.52;19.60
14293;BME280;62290;59.420;17.842;2023-01-24T05:00:30;102744.28;;;25.51;19.57
14293;BME280;62290;59.420;17.842;2023-01-24T05:02:58;102743.22;;;25.54;19.85
14293;BME280;62290;59.420;17.842;2023-01-24T05:05:27;102734.22;;;25.53;19.82
14293;BME280;62290;59.420;17.842;2023-01-24T05:07:57;102744.94;;;25.55;19.80
14293;BME280;62290;59.420;17.842;2023-01-24T05:10:25;102754.88;;;25.54;19.62
14293;BME280;62290;59.420;17.842;2023-01-24T05:12:53;102746.78;;;25.54;19.45
14293;BME280;62290;59.420;17.842;2023-01-24T05:15:23;102749.47;;;25.54;19.67
14293;BME280;62290;59.420;17.842;2023-01-24T05:17:53;102743.22;;;25.54;19.64
14293;BME280;62290;59.420;17.842;2023-01-24T05:20:24;102743.22;;;25.54;19.58
14293;BME280;62290;59.420;17.842;2023-01-24T05:22:56;102739.63;;;25.53;19.57
14293;BME280;62290;59.420;17.842;2023-01-24T05:25:26;102735.22;;;25.52;19.63
14293;BME280;62290;59.420;17.842;2023-01-24T05:27:54;102736.16;;;25.51;19.54
14293;BME280;62290;59.420;17.842;2023-01-24T05:30:23;102742.44;;;25.52;20.10
14293;BME280;62290;59.420;17.842;2023-01-24T05:32:55;102737.91;;;25.52;20.04
14293;BME280;62290;59.420;17.842;2023-01-24T05:35:24;102736.16;;;25.51;19.96
14293;BME280;62290;59.420;17.842;2023-01-24T05:37:52;102728.94;;;25.52;20.01
14293;BME280;62290;59.420;17.842;2023-01-24T05:40:24;102728.06;;;25.51;20.25
14293;BME280;62290;59.420;17.842;2023-01-24T05:42:52;102719.22;;;25.49;20.17
14293;BME280;62290;59.420;17.842;2023-01-24T05:45:20;102721.03;;;25.49;20.20
14293;BME280;62290;59.420;17.842;2023-01-24T05:47:49;102705.91;;;25.46;19.94
14293;BME280;62290;59.420;17.842;2023-01-24T05:50:18;102708.59;;;25.46;20.04
14293;BME280;62290;59.420;17.842;2023-01-24T05:53:06;102706.78;;;25.47;19.84
14293;BME280;62290;59.420;17.842;2023-01-24T05:55:35;102704.84;;;25.49;20.02
14293;BME280;62290;59.420;17.842;2023-01-24T05:58:03;102707.72;;;25.46;19.83
14293;BME280;62290;59.420;17.842;2023-01-24T06:00:51;102700.56;;;25.45;20.23
14293;BME280;62290;59.420;17.842;2023-01-24T06:03:29;102702.22;;;25.47;20.29
14293;BME280;62290;59.420;17.842;2023-01-24T06:05:57;102698.69;;;25.47;19.90
14293;BME280;62290;59.420;17.842;2023-01-24T06:08:28;102704.84;;;25.49;20.32
14293;BME280;62290;59.420;17.842;2023-01-24T06:11:03;102684.34;;;25.45;19.96
14293;BME280;62290;59.420;17.842;2023-01-24T06:13:32;102695.00;;;25.48;20.33
14293;BME280;62290;59.420;17.842;2023-01-24T06:16:03;102699.44;;;25.49;20.37
14293;BME280;62290;59.420;17.842;2023-01-24T06:18:33;102695.00;;;25.48;20.10
14293;BME280;62290;59.420;17.842;2023-01-24T06:21:06;102703.09;;;25.48;19.98
14293;BME280;62290;59.420;17.842;2023-01-24T06:23:34;102690.47;;;25.48;20.02
14293;BME280;62290;59.420;17.842;2023-01-24T06:26:08;102693.16;;;25.48;20.24
14293;BME280;62290;59.420;17.842;2023-01-24T06:28:37;102694.03;;;25.49;20.37
14293;BME280;62290;59.420;17.842;2023-01-24T06:31:16;102689.41;;;25.51;20.39
14293;BME280;62290;59.420;17.842;2023-01-24T06:34:00;102684.00;;;25.51;20.44
14293;BME280;62290;59.420;17.842;2023-01-24T06:36:47;102700.19;;;25.51;20.45
14293;BME280;62290;59.420;17.842;2023-01-24T06:39:19;102693.06;;;25.50;20.18
14293;BME280;62290;59.420;17.842;2023-01-24T06:41:50;102692.09;;;25.51;20.38
14293;BME280;62290;59.420;17.842;2023-01-24T06:44:18;102691.34;;;25.49;20.30
14293;BME280;62290;59.420;17.842;2023-01-24T06:46:46;102686.28;;;25.43;20.35
14293;BME280;62290;59.420;17.842;2023-01-24T06:49:14;102689.97;;;25.42;20.73
14293;BME280;62290;59.420;17.842;2023-01-24T06:51:42;102686.28;;;25.43;21.53
14293;BME280;62290;59.420;17.842;2023-01-24T06:54:16;102674.72;;;25.41;22.33
14293;BME280;62290;59.420;17.842;2023-01-24T06:56:44;102678.13;;;25.44;22.60
14293;BME280;62290;59.420;17.842;2023-01-24T06:59:13;102684.34;;;25.45;23.58
14293;BME280;62290;59.420;17.842;2023-01-24T07:01:41;102687.00;;;25.46;23.70
14293;BME280;62290;59.420;17.842;2023-01-24T07:04:09;102685.34;;;25.44;23.00
14293;BME280;62290;59.420;17.842;2023-01-24T07:06:37;102686.13;;;25.46;23.17
14293;BME280;62290;59.420;17.842;2023-01-24T07:09:05;102693.31;;;25.45;24.44
14293;BME280;62290;59.420;17.842;2023-01-24T07:11:33;102695.88;;;25.48;23.86
14293;BME280;62290;59.420;17.842;2023-01-24T07:14:01;102701.06;;;25.51;23.84
14293;BME280;62290;59.420;17.842;2023-01-24T07:16:31;102701.25;;;25.48;24.67
14293;BME280;62290;59.420;17.842;2023-01-24T07:18:59;102703.84;;;25.50;24.00
14293;BME280;62290;59.420;17.842;2023-01-24T07:21:28;102703.59;;;25.54;24.38
14293;BME280;62290;59.420;17.842;2023-01-24T07:23:57;102697.88;;;25.59;24.40
14293;BME280;62290;59.420;17.842;2023-01-24T07:26:26;102692.28;;;25.62;24.33
14293;BME280;62290;59.420;17.842;2023-01-24T07:28:54;102701.13;;;25.64;24.37
14293;BME280;62290;59.420;17.842;2023-01-24T07:31:22;102701.69;;;25.69;23.82
14293;BME280;62290;59.420;17.842;2023-01-24T07:33:52;102709.41;;;25.75;24.31
14293;BME280;62290;59.420;17.842;2023-01-24T07:36:20;102709.97;;;25.80;23.68
14293;BME280;62290;59.420;17.842;2023-01-24T07:38:48;102711.59;;;25.83;24.14
14293;BME280;62290;59.420;17.842;2023-01-24T07:41:20;102708.44;;;25.76;23.73
14293;BME280;62290;59.420;17.842;2023-01-24T07:43:52;102699.00;;;25.69;23.99
14293;BME280;62290;59.420;17.842;2023-01-24T07:46:20;102691.22;;;25.64;24.16
14293;BME280;62290;59.420;17.842;2023-01-24T07:48:48;102699.19;;;25.66;24.17
14293;BME280;62290;59.420;17.842;2023-01-24T07:51:17;102691.78;;;25.69;23.38
14293;BME280;62290;59.420;17.842;2023-01-24T07:53:46;102691.47;;;25.74;23.21
14293;BME280;62290;59.420;17.842;2023-01-24T07:56:14;102694.16;;;25.74;23.48
14293;BME280;62290;59.420;17.842;2023-01-24T07:58:51;102693.22;;;25.75;23.12
14293;BME280;62290;59.420;17.842;2023-01-24T08:01:19;102692.53;;;25.71;23.52
14293;BME280;62290;59.420;17.842;2023-01-24T08:03:48;102686.88;;;25.62;23.55
14293;BME280;62290;59.420;17.842;2023-01-24T08:06:18;102676.56;;;25.54;23.36
14293;BME280;62290;59.420;17.842;2023-01-24T08:08:46;102669.81;;;25.47;23.24
14293;BME280;62290;59.420;17.842;2023-01-24T08:11:14;102673.66;;;25.43;23.57
14293;BME280;62290;59.420;17.842;2023-01-24T08:13:44;102685.66;;;25.39;23.43
14293;BME280;62290;59.420;17.842;2023-01-24T08:16:13;102694.00;;;25.35;23.75
14293;BME280;62290;59.420;17.842;2023-01-24T08:18:41;102669.38;;;25.12;23.68
14293;BME280;62290;59.420;17.842;2023-01-24T08:21:10;102687.84;;;25.18;23.92
14293;BME280;62290;59.420;17.842;2023-01-24T08:23:41;102688.16;;;25.14;23.85
14293;BME280;62290;59.420;17.842;2023-01-24T08:26:09;102698.06;;;25.13;23.15
14293;BME280;62290;59.420;17.842;2023-01-24T08:28:37;102699.63;;;25.17;23.00
14293;BME280;62290;59.420;17.842;2023-01-24T08:31:05;102697.81;;;25.18;23.20
14293;BME280;62290;59.420;17.842;2023-01-24T08:33:33;102698.75;;;25.17;23.05
14293;BME280;62290;59.420;17.842;2023-01-24T08:36:05;102690.78;;;25.15;22.89
14293;BME280;62290;59.420;17.842;2023-01-24T08:38:33;102712.72;;;25.09;23.13
14293;BME280;62290;59.420;17.842;2023-01-24T08:41:04;102715.72;;;25.05;23.00
14293;BME280;62290;59.420;17.842;2023-01-24T08:43:34;102709.94;;;24.97;23.04
14293;BME280;62290;59.420;17.842;2023-01-24T08:46:03;102720.34;;;24.89;23.13
14293;BME280;62290;59.420;17.842;2023-01-24T08:48:31;102728.78;;;24.83;22.87
14293;BME280;62290;59.420;17.842;2023-01-24T08:51:02;102731.78;;;24.78;22.95
14293;BME280;62290;59.420;17.842;2023-01-24T08:53:30;102735.69;;;24.73;22.65
14293;BME280;62290;59.420;17.842;2023-01-24T08:56:01;102734.03;;;24.70;22.84
14293;BME280;62290;59.420;17.842;2023-01-24T08:58:30;102723.25;;;24.70;22.80
14293;BME280;62290;59.420;17.842;2023-01-24T09:00:59;102725.19;;;24.68;22.77
14293;BME280;62290;59.420;17.842;2023-01-24T09:03:28;102715.44;;;24.66;22.77
14293;BME280;62290;59.420;17.842;2023-01-24T09:05:56;102711.88;;;24.65;22.67
14293;BME280;62290;59.420;17.842;2023-01-24T09:08:24;102711.78;;;24.67;22.75
14293;BME280;62290;59.420;17.842;2023-01-24T09:10:53;102719.94;;;24.81;22.71
14293;BME280;62290;59.420;17.842;2023-01-24T09:13:21;102723.31;;;24.84;24.89
14293;BME280;62290;59.420;17.842;2023-01-24T09:15:50;102720.72;;;24.97;25.43
14293;BME280;62290;59.420;17.842;2023-01-24T09:18:19;102723.91;;;25.03;25.10
14293;BME280;62290;59.420;17.842;2023-01-24T09:20:47;102730.09;;;25.05;25.36
14293;BME280;62290;59.420;17.842;2023-01-24T09:23:15;102736.25;;;25.07;25.18
14293;BME280;62290;59.420;17.842;2023-01-24T09:25:49;102727.09;;;25.10;24.79
14293;BME280;62290;59.420;17.842;2023-01-24T09:28:18;102728.81;;;25.11;24.58
14293;BME280;62290;59.420;17.842;2023-01-24T09:30:47;102731.91;;;25.19;24.33
14293;BME280;62290;59.420;17.842;2023-01-24T09:33:17;102733.28;;;25.26;24.23
14293;BME280;62290;59.420;17.842;2023-01-24T09:35:54;102737.63;;;25.29;23.67
14293;BME280;62290;59.420;17.842;2023-01-24T09:38:24;102737.03;;;25.24;23.82
14293;BME280;62290;59.420;17.842;2023-01-24T09:41:03;102741.94;;;25.17;23.44
14293;BME280;62290;59.420;17.842;2023-01-24T09:43:43;102743.38;;;25.08;23.44
14293;BME280;62290;59.420;17.842;2023-01-24T09:46:30;102739.63;;;24.97;23.67
14293;BME280;62290;59.420;17.842;2023-01-24T09:49:11;102724.84;;;24.88;23.66
14293;BME280;62290;59.420;17.842;2023-01-24T09:51:44;102741.41;;;24.82;23.61
14293;BME280;62290;59.420;17.842;2023-01-24T09:54:17;102729.16;;;24.77;23.74
14293;BME280;62290;59.420;17.842;2023-01-24T09:56:49;102740.13;;;24.74;23.63
14293;BME280;62290;59.420;17.842;2023-01-24T09:59:21;102725.66;;;24.75;23.81
14293;BME280;62290;59.420;17.842;2023-01-24T10:01:51;102717.75;;;24.72;23.51
14293;BME280;62290;59.420;17.842;2023-01-24T10:04:23;102723.25;;;24.70;23.75
14293;BME280;62290;59.420;17.842;2023-01-24T10:07:27;102721.25;;;24.74;23.79
14293;BME280;62290;59.420;17.842;2023-01-24T10:10:10;102719.38;;;24.74;23.58
14293;BME280;62290;59.420;17.842;2023-01-24T10:12:47;102726.53;;;24.75;23.62
14293;BME280;62290;59.420;17.842;2023-01-24T10:15:30;102715.50;;;24.80;23.43
14293;BME280;62290;59.420;17.842;2023-01-24T10:21:12;102708.19;;;24.82;23.63
14293;BME280;62290;59.420;17.842;2023-01-24T10:23:44;102701.06;;;24.81;23.69
14293;BME280;62290;59.420;17.842;2023-01-24T10:26:18;102681.56;;;24.76;23.23
14293;BME280;62290;59.420;17.842;2023-01-24T10:28:49;102717.84;;;25.00;22.97
14293;BME280;62290;59.420;17.842;2023-01-24T10:31:20;102710.53;;;25.02;23.17
14293;BME280;62290;59.420;17.842;2023-01-24T10:33:54;102711.28;;;25.04;23.36
14293;BME280;62290;59.420;17.842;2023-01-24T10:36:33;102706.00;;;25.02;23.21
14293;BME280;62290;59.420;17.842;2023-01-24T10:39:04;102710.81;;;24.97;22.88
14293;BME280;62290;59.420;17.842;2023-01-24T10:41:32;102718.22;;;24.94;23.22
14293;BME280;62290;59.420;17.842;2023-01-24T10:44:04;102716.97;;;24.99;23.23
14293;BME280;62290;59.420;17.842;2023-01-24T10:49:30;102704.13;;;25.03;22.89
14293;BME280;62290;59.420;17.842;2023-01-24T10:52:12;102693.34;;;25.03;22.81
14293;BME280;62290;59.420;17.842;2023-01-24T10:54:46;102679.97;;;25.01;22.79
14293;BME280;62290;59.420;17.842;2023-01-24T10:57:24;102682.97;;;24.97;22.41
14293;BME280;62290;59.420;17.842;2023-01-24T10:59:54;102678.91;;;24.90;22.64
14293;BME280;62290;59.420;17.842;2023-01-24T11:02:24;102682.56;;;24.89;22.73
14293;BME280;62290;59.420;17.842;2023-01-24T11:04:58;102687.38;;;24.98;22.56
14293;BME280;62290;59.420;17.842;2023-01-24T11:07:30;102671.75;;;25.03;22.55
14293;BME280;62290;59.420;17.842;2023-01-24T11:10:00;102671.19;;;24.98;22.68
14293;BME280;62290;59.420;17.842;2023-01-24T11:12:28;102678.03;;;25.03;22.75
14293;BME280;62290;59.420;17.842;2023-01-24T11:14:56;102666.59;;;25.00;22.64
14293;BME280;62290;59.420;17.842;2023-01-24T11:17:33;102679.41;;;24.96;22.71
14293;BME280;62290;59.420;17.842;2023-01-24T11:20:17;102675.16;;;24.92;22.39
14293;BME280;62290;59.420;17.842;2023-01-24T11:22:51;102677.94;;;24.91;22.42
14293;BME280;62290;59.420;17.842;2023-01-24T11:25:19;102672.47;;;24.92;22.79
14293;BME280;62290;59.420;17.842;2023-01-24T11:27:48;102669.38;;;24.84;22.49
14293;BME280;62290;59.420;17.842;2023-01-24T11:30:19;102670.72;;;24.91;22.67
14293;BME280;62290;59.420;17.842;2023-01-24T11:32:55;102668.50;;;24.98;22.65
14293;BME280;62290;59.420;17.842;2023-01-24T11:35:28;102658.56;;;24.98;22.42
14293;BME280;62290;59.420;17.842;2023-01-24T11:38:15;102668.31;;;25.01;22.10
14293;BME280;62290;59.420;17.842;2023-01-24T11:40:48;102672.25;;;24.95;22.58
14293;BME280;62290;59.420;17.842;2023-01-24T11:46:36;102664.63;;;25.16;22.70
14293;BME280;62290;59.420;17.842;2023-01-24T11:49:41;102668.38;;;25.28;22.29
14293;BME280;62290;59.420;17.842;2023-01-24T11:55:36;102648.41;;;25.44;22.31
14293;BME280;62290;59.420;17.842;2023-01-24T11:58:24;102656.13;;;25.50;21.92
14293;BME280;62290;59.420;17.842;2023-01-24T12:01:04;102650.44;;;25.55;21.99
14293;BME280;62290;59.420;17.842;2023-01-24T12:03:50;102644.75;;;25.59;22.01
14293;BME280;62290;59.420;17.842;2023-01-24T12:06:33;102641.06;;;25.60;22.44
14293;BME280;62290;59.420;17.842;2023-01-24T12:09:17;102639.34;;;25.59;22.19
14293;BME280;62290;59.420;17.842;2023-01-24T12:12:02;102611.06;;;25.65;22.13
14293;BME280;62290;59.420;17.842;2023-01-24T12:14:46;102599.41;;;25.64;22.50
14293;BME280;62290;59.420;17.842;2023-01-24T12:17:33;102585.53;;;25.56;22.53
14293;BME280;62290;59.420;17.842;2023-01-24T12:20:26;102593.94;;;25.52;22.07
14293;BME280;62290;59.420;17.842;2023-01-24T12:23:02;102593.28;;;25.48;22.21
14293;BME280;62290;59.420;17.842;2023-01-24T12:25:38;102564.88;;;25.29;22.77
14293;BME280;62290;59.420;17.842;2023-01-24T12:28:13;102570.91;;;25.32;22.46
14293;BME280;62290;59.420;17.842;2023-01-24T12:30:46;102599.34;;;25.52;22.46
14293;BME280;62290;59.420;17.842;2023-01-24T12:33:22;102593.75;;;25.55;22.68
14293;BME280;62290;59.420;17.842;2023-01-24T12:35:55;102586.81;;;25.51;22.59
14293;BME280;62290;59.420;17.842;2023-01-24T12:38:31;102575.69;;;25.55;22.50
14293;BME280;62290;59.420;17.842;2023-01-24T12:41:08;102575.19;;;25.63;22.48
14293;BME280;62290;59.420;17.842;2023-01-24T12:43:48;102584.97;;;25.78;22.81
14293;BME280;62290;59.420;17.842;2023-01-24T12:46:25;102575.69;;;25.82;24.31
14293;BME280;62290;59.420;17.842;2023-01-24T12:49:01;102572.88;;;25.84;24.13
14293;BME280;62290;59.420;17.842;2023-01-24T12:51:43;102582.63;;;25.86;25.28
14293;BME280;62290;59.420;17.842;2023-01-24T12:54:17;102533.59;;;25.65;25.24
14293;BME280;62290;59.420;17.842;2023-01-24T12:56:52;102570.00;;;25.99;26.12
14293;BME280;62290;59.420;17.842;2023-01-24T12:59:27;102581.34;;;26.04;26.67
14293;BME280;62290;59.420;17.842;2023-01-24T13:02:35;102577.56;;;26.07;26.74
14293;BME280;62290;59.420;17.842;2023-01-24T13:05:23;102574.88;;;26.07;26.68
14293;BME280;62290;59.420;17.842;2023-01-24T13:08:08;102574.75;;;26.08;26.73
14293;BME280;62290;59.420;17.842;2023-01-24T13:10:53;102577.66;;;26.05;27.13
14293;BME280;62290;59.420;17.842;2023-01-24T13:13:27;102577.66;;;26.05;26.92
14293;BME280;62290;59.420;17.842;2023-01-24T13:16:20;102575.84;;;26.06;26.96
14293;BME280;62290;59.420;17.842;2023-01-24T13:19:01;102575.16;;;26.02;26.81
14293;BME280;62290;59.420;17.842;2023-01-24T13:21:39;102575.28;;;26.01;26.76
14293;BME280;62290;59.420;17.842;2023-01-24T13:24:31;102574.41;;;26.00;26.55